Time;durP1;ratioP1;P1;durP2;ratioP2;P2;SDS_P1;SDS_P2;PMS_P1;PMS_P2;Temp;Humidity;BMP_temperature;BMP_pressure;BME280_temperature;BME280_humidity;BME280_pressure;Samples;Min_cycle;Max_cycle;Signal;HPM_P1;HPM_P2
2022/09/27 00:01:43;;;;;;;20.60;14.47;;;;;;;11.96;76.45;99874.86;1722947;82;22451;-84
2022/09/27 00:04:11;;;;;;;21.30;14.47;;;;;;;11.98;76.55;99877.06;1744432;81;21064;-83
2022/09/27 00:06:38;;;;;;;17.90;14.55;;;;;;;11.96;76.48;99880.13;1723609;81;21066;-84
2022/09/27 00:09:05;;;;;;;18.90;14.63;;;;;;;11.75;76.45;99857.11;1726703;81;20969;-83
2022/09/27 00:11:38;;;;;;;15.90;13.75;;;;;;;11.81;76.57;99873.86;1748209;81;21065;-84
2022/09/27 00:14:06;;;;;;;21.50;14.73;;;;;;;11.83;76.72;99879.14;1731432;81;21842;-84
2022/09/27 00:16:36;;;;;;;18.92;14.50;;;;;;;11.83;76.84;99875.19;1735038;81;21059;-93
2022/09/27 00:19:06;;;;;;;19.35;14.20;;;;;;;11.82;76.82;99876.95;1754443;81;21074;-93
2022/09/27 00:21:34;;;;;;;15.05;13.35;;;;;;;11.82;76.87;99870.77;1750748;81;21122;-82
2022/09/27 00:24:01;;;;;;;15.93;13.50;;;;;;;11.79;76.95;99869.02;1748682;81;21066;-83
2022/09/27 00:26:28;;;;;;;17.50;13.35;;;;;;;11.78;76.93;99875.14;1753824;81;21759;-83
2022/09/27 00:28:56;;;;;;;17.60;13.75;;;;;;;11.75;76.93;99865.92;1749911;81;21090;-92
2022/09/27 00:31:28;;;;;;;18.12;14.05;;;;;;;11.69;76.97;99861.91;1745841;82;21059;-83
2022/09/27 00:33:56;;;;;;;19.98;15.10;;;;;;;11.67;76.99;99871.15;1729565;82;21087;-83
2022/09/27 00:36:23;;;;;;;17.85;14.53;;;;;;;11.63;77.03;99868.02;1720221;82;21133;-90
2022/09/27 00:38:49;;;;;;;17.27;13.95;;;;;;;11.62;77.10;99867.59;1746302;82;21749;-83
2022/09/27 00:41:23;;;;;;;18.92;14.25;;;;;;;11.59;77.08;99861.41;1744068;82;21087;-92
2022/09/27 00:43:54;;;;;;;21.50;14.65;;;;;;;11.54;77.05;99864.45;1724404;82;21070;-83
2022/09/27 00:46:29;;;;;;;19.23;14.43;;;;;;;11.46;76.94;99857.81;1742012;82;21084;-83
2022/09/27 00:49:18;;;;;;;20.12;15.78;;;;;;;11.29;76.98;99838.80;1707683;83;21046;-82
2022/09/27 00:51:47;;;;;;;22.98;15.18;;;;;;;11.29;77.09;99850.66;1725909;82;21836;-84
2022/09/27 00:54:27;;;;;;;21.17;15.60;;;;;;;11.21;77.19;99847.09;1716207;82;21155;-93
2022/09/27 00:56:54;;;;;;;23.00;15.15;;;;;;;11.17;77.25;99845.75;1681803;82;21118;-84
2022/09/27 00:59:31;;;;;;;19.48;15.68;;;;;;;11.09;77.33;99848.30;1730334;82;21084;-82
2022/09/27 01:01:58;;;;;;;19.20;15.68;;;;;;;11.04;77.37;99856.17;1710896;81;21047;-83
2022/09/27 01:04:28;;;;;;;20.50;15.78;;;;;;;10.98;77.47;99849.55;1744739;82;21450;-91
2022/09/27 01:06:55;;;;;;;20.05;15.70;;;;;;;10.97;77.74;99850.84;1726728;82;21111;-92
2022/09/27 01:09:22;;;;;;;21.62;16.95;;;;;;;10.98;77.95;99843.38;1733809;82;21031;-82
2022/09/27 01:12:06;;;;;;;25.05;16.60;;;;;;;11.02;78.12;99835.53;1734489;82;21087;-91
2022/09/27 01:14:50;;;;;;;26.27;18.12;;;;;;;11.07;78.27;99837.77;1724378;82;21044;-91
2022/09/27 01:17:57;;;;;;;26.07;18.27;;;;;;;11.14;78.41;99829.47;1724792;82;21795;-84
2022/09/27 01:21:12;;;;;;;24.50;19.23;;;;;;;11.20;78.47;99832.59;1732561;82;21050;-83
2022/09/27 01:23:56;;;;;;;27.45;18.70;;;;;;;11.27;78.60;99823.42;1730749;82;21780;-84
2022/09/27 01:26:32;;;;;;;21.62;17.57;;;;;;;11.33;78.55;99831.80;1746686;82;21095;-83
2022/09/27 01:29:27;;;;;;;21.10;16.27;;;;;;;11.35;78.60;99824.79;1730682;82;21664;-84
2022/09/27 01:32:21;;;;;;;22.30;14.45;;;;;;;11.39;78.60;99819.11;1724387;83;22035;-92
2022/09/27 01:35:11;;;;;;;20.35;14.85;;;;;;;11.40;78.52;99815.62;1712195;83;21050;-85
2022/09/27 01:38:14;;;;;;;16.15;13.38;;;;;;;11.43;78.57;99819.16;1682108;83;21118;-83
2022/09/27 01:44:55;;;;;;;16.65;13.75;;;;;;;11.43;78.38;99815.61;1615598;88;21122;-83
2022/09/27 01:47:25;;;;;;;15.72;12.80;;;;;;;11.36;78.30;99814.70;1588803;89;21813;-84
2022/09/27 01:50:00;;;;;;;17.85;12.53;;;;;;;11.33;78.30;99815.12;1610614;88;21227;-84
2022/09/27 01:52:38;;;;;;;16.52;12.70;;;;;;;11.28;78.34;99815.11;1603248;88;21159;-84
2022/09/27 01:55:07;;;;;;;15.35;12.80;;;;;;;11.24;78.33;99814.20;1589519;88;21159;-93
2022/09/27 01:57:40;;;;;;;15.48;12.53;;;;;;;11.22;78.38;99815.03;1600058;88;21694;-83
2022/09/27 02:00:09;;;;;;;15.15;12.73;;;;;;;11.17;78.28;99814.14;1616338;88;21788;-83
2022/09/27 02:02:57;;;;;;;16.97;12.70;;;;;;;11.13;78.23;99817.19;1590191;88;21122;-83
2022/09/27 02:05:46;;;;;;;14.20;12.55;;;;;;;11.08;78.29;99814.95;1589137;90;21114;-92
2022/09/27 02:08:21;;;;;;;14.73;12.73;;;;;;;11.06;78.31;99816.69;1542061;91;21217;-83
2022/09/27 02:10:48;;;;;;;13.93;11.90;;;;;;;11.02;78.42;99814.46;1585286;88;21143;-83
2022/09/27 02:13:25;;;;;;;15.72;12.47;;;;;;;11.01;78.49;99815.77;1615411;88;21779;-83
2022/09/27 02:16:25;;;;;;;16.48;13.43;;;;;;;11.01;78.56;99813.13;1672856;84;21043;-83
2022/09/27 02:19:00;;;;;;;14.23;12.75;;;;;;;11.01;78.66;99811.37;1673350;84;21583;-84
2022/09/27 02:21:33;;;;;;;15.00;12.93;;;;;;;11.06;78.82;99810.98;1701601;84;21081;-93
2022/09/27 02:24:00;;;;;;;19.67;15.00;;;;;;;11.06;78.67;99810.11;1655768;84;21159;-84
2022/09/27 02:26:32;;;;;;;19.02;14.68;;;;;;;11.04;78.66;99811.84;1673188;84;21848;-84
2022/09/27 02:29:10;;;;;;;17.40;14.07;;;;;;;11.06;78.78;99806.16;1672289;85;21448;-94
2022/09/27 02:31:38;;;;;;;17.85;13.88;;;;;;;11.06;78.78;99800.44;1703712;83;21060;-94
2022/09/27 02:34:13;;;;;;;17.17;13.75;;;;;;;11.04;78.74;99795.60;1721160;82;21045;-83
2022/09/27 02:36:40;;;;;;;21.40;14.47;;;;;;;11.04;78.65;99798.23;1718023;83;21078;-83
2022/09/27 02:39:06;;;;;;;17.32;14.25;;;;;;;11.01;78.59;99796.02;1692685;84;21762;-83
2022/09/27 02:41:33;;;;;;;19.42;14.47;;;;;;;10.98;78.62;99787.66;1656741;84;22154;-94
2022/09/27 02:44:05;;;;;;;16.50;13.70;;;;;;;10.93;78.62;99786.73;1669644;85;21083;-84
2022/09/27 02:47:23;;;;;;;21.20;15.13;;;;;;;10.88;78.53;99781.42;1645047;85;21049;-94
2022/09/27 02:50:28;;;;;;;18.07;14.23;;;;;;;10.82;78.58;99779.19;1640777;87;21080;-93
2022/09/27 02:56:50;;;;;;;20.52;13.70;;;;;;;10.67;78.58;99779.48;1619256;88;21079;-93
2022/09/27 02:59:38;;;;;;;17.95;13.70;;;;;;;10.58;78.70;99783.79;1630185;87;21734;-92
2022/09/27 03:02:27;;;;;;;18.48;14.10;;;;;;;10.49;78.79;99772.73;1605980;87;21672;-91
2022/09/27 03:05:00;;;;;;;17.23;14.60;;;;;;;10.40;78.85;99770.02;1615896;87;21064;-92
2022/09/27 03:07:28;;;;;;;18.50;14.33;;;;;;;10.45;78.89;99782.78;1637998;86;21792;-92
2022/09/27 03:09:55;;;;;;;17.17;13.20;;;;;;;10.42;78.96;99779.70;1624376;87;21160;-83
2022/09/27 03:12:24;;;;;;;18.70;14.15;;;;;;;10.38;78.90;99779.64;1628732;86;21099;-83
2022/09/27 03:14:53;;;;;;;18.45;14.43;;;;;;;10.30;78.79;99772.95;1628006;87;21611;-84
2022/09/27 03:17:20;;;;;;;21.65;15.08;;;;;;;10.24;78.93;99773.77;1644641;87;21663;-84
2022/09/27 03:19:46;;;;;;;19.82;14.95;;;;;;;10.21;78.90;99773.77;1645256;87;21779;-92
2022/09/27 03:22:14;;;;;;;22.27;14.93;;;;;;;10.16;78.91;99781.15;1632692;87;21164;-85
2022/09/27 03:24:40;;;;;;;19.55;14.73;;;;;;;10.08;78.93;99775.37;1679778;84;21139;-93
2022/09/27 03:27:07;;;;;;;17.62;14.65;;;;;;;10.01;78.93;99774.84;1674478;85;21576;-84
2022/09/27 03:29:34;;;;;;;20.70;14.25;;;;;;;9.97;79.08;99771.73;1662893;84;21709;-84
2022/09/27 03:32:02;;;;;;;17.52;13.83;;;;;;;9.94;79.22;99774.31;1675830;85;21825;-83
2022/09/27 03:34:29;;;;;;;21.02;14.70;;;;;;;9.91;79.26;99769.05;1680946;85;21075;-93
2022/09/27 03:36:56;;;;;;;19.02;14.15;;;;;;;9.87;79.23;99760.23;1655803;86;21092;-91
2022/09/27 03:39:23;;;;;;;17.98;14.15;;;;;;;9.83;79.25;99757.09;1647829;86;21597;-91
2022/09/27 03:41:50;;;;;;;18.02;14.85;;;;;;;9.77;79.19;99749.14;1703169;82;21624;-92
2022/09/27 03:44:16;;;;;;;18.37;14.20;;;;;;;9.69;79.17;99750.37;1706239;82;22618;-92
2022/09/27 03:46:43;;;;;;;19.87;15.45;;;;;;;9.65;79.31;99745.07;1713874;82;21027;-83
2022/09/27 03:49:10;;;;;;;17.62;13.62;;;;;;;9.64;79.40;99743.29;1714769;82;21087;-92
2022/09/27 03:51:37;;;;;;;19.65;14.63;;;;;;;9.63;79.50;99741.52;1713826;82;21811;-91
2022/09/27 03:54:04;;;;;;;19.40;15.00;;;;;;;9.61;79.47;99741.92;1737635;82;21066;-83
2022/09/27 03:56:31;;;;;;;20.43;15.65;;;;;;;9.59;79.57;99735.77;1733082;82;21701;-83
2022/09/27 03:58:58;;;;;;;20.65;15.88;;;;;;;9.55;79.51;99740.10;1726247;82;21054;-87
2022/09/27 04:01:25;;;;;;;17.82;14.83;;;;;;;9.49;79.41;99743.53;1731845;82;21098;-83
2022/09/27 04:03:52;;;;;;;18.65;14.85;;;;;;;9.42;79.27;99744.75;1719093;82;21130;-83
2022/09/27 04:06:19;;;;;;;19.87;14.85;;;;;;;9.34;79.32;99738.08;1716264;82;21131;-84
2022/09/27 04:08:46;;;;;;;19.48;15.75;;;;;;;9.30;79.45;99737.59;1718707;82;21837;-91
2022/09/27 04:11:25;;;;;;;18.98;15.58;;;;;;;9.25;79.42;99742.80;1703858;83;21064;-94
2022/09/27 04:13:52;;;;;;;19.48;15.13;;;;;;;9.20;79.41;99747.09;1710596;83;21088;-90
2022/09/27 04:16:19;;;;;;;21.85;16.30;;;;;;;9.14;79.45;99753.55;1719272;82;21094;-89
2022/09/27 04:18:54;;;;;;;23.90;16.35;;;;;;;9.08;79.50;99760.89;1740478;82;21813;-87
2022/09/27 04:21:25;;;;;;;17.67;14.87;;;;;;;9.03;79.60;99754.72;1733403;82;21811;-86
2022/09/27 04:23:52;;;;;;;18.05;14.10;;;;;;;8.99;79.62;99755.94;1733327;82;21380;-87
2022/09/27 04:26:19;;;;;;;21.37;15.45;;;;;;;8.94;79.71;99748.02;1717169;82;21036;-86
2022/09/27 04:28:50;;;;;;;21.97;16.15;;;;;;;8.90;79.78;99744.89;1723281;82;21108;-88
2022/09/27 04:31:19;;;;;;;22.98;18.37;;;;;;;8.88;79.75;99736.99;1689066;83;21071;-92
2022/09/27 04:33:46;;;;;;;30.70;22.42;;;;;;;8.88;79.90;99735.68;1677414;85;21824;-87
2022/09/27 04:36:26;;;;;;;37.67;26.48;;;;;;;8.87;79.91;99743.52;1717660;83;21139;-90
2022/09/27 04:38:59;;;;;;;38.92;27.67;;;;;;;8.87;80.04;99740.46;1720531;83;21036;-83
2022/09/27 04:41:27;;;;;;;39.40;30.17;;;;;;;8.85;79.97;99739.55;1716240;83;21076;-82
2022/09/27 04:43:55;;;;;;;37.95;29.15;;;;;;;8.83;80.02;99747.84;1713815;83;21076;-83
2022/09/27 04:46:25;;;;;;;44.23;29.57;;;;;;;8.81;80.09;99737.75;1696408;83;21782;-83
2022/09/27 04:48:50;;;;;;;34.38;25.50;;;;;;;8.84;80.18;99734.28;1714519;83;21075;-83
2022/09/27 04:51:18;;;;;;;29.37;22.20;;;;;;;8.85;80.28;99736.94;1681366;83;21083;-85
2022/09/27 04:53:45;;;;;;;28.55;21.37;;;;;;;8.87;80.51;99733.90;1690877;83;21952;-83
2022/09/27 04:56:12;;;;;;;29.52;21.30;;;;;;;8.94;80.52;99734.89;1718611;83;21048;-83
2022/09/27 04:58:39;;;;;;;27.17;21.37;;;;;;;9.00;80.72;99732.34;1704920;82;21744;-82
2022/09/27 05:01:20;;;;;;;57.90;23.55;;;;;;;9.12;80.91;99730.33;1692400;83;21116;-83
2022/09/27 05:03:50;;;;;;;45.55;22.93;;;;;;;9.24;80.98;99735.77;1694693;83;21076;-89
2022/09/27 05:06:18;;;;;;;110.57;24.32;;;;;;;9.40;81.12;99734.66;1677026;84;21071;-86
2022/09/27 05:08:45;;;;;;;90.10;21.02;;;;;;;9.51;81.20;99732.61;1679009;83;21024;-89
2022/09/27 05:11:12;;;;;;;75.03;19.75;;;;;;;9.63;81.28;99738.88;1711670;83;21620;-84
2022/09/27 05:13:38;;;;;;;74.07;18.62;;;;;;;9.75;81.25;99740.36;1691756;84;21059;-85
2022/09/27 05:16:06;;;;;;;60.40;17.00;;;;;;;9.85;81.25;99736.09;1691718;83;21093;-85
2022/09/27 05:18:43;;;;;;;45.33;16.57;;;;;;;9.95;81.19;99738.38;1706385;83;21051;-91
2022/09/27 05:21:53;;;;;;;36.23;16.37;;;;;;;10.04;81.24;99739.80;1721207;83;21017;-89
2022/09/27 05:25:06;;;;;;;39.13;16.48;;;;;;;10.12;81.07;99739.48;1720932;83;21809;-88
2022/09/27 05:27:33;;;;;;;62.35;17.05;;;;;;;10.24;81.16;99734.77;1719585;82;22144;-84
2022/09/27 05:30:00;;;;;;;39.70;15.10;;;;;;;10.34;81.04;99730.06;1692429;84;21022;-87
2022/09/27 05:33:03;;;;;;;44.23;15.65;;;;;;;10.43;81.14;99729.28;1706093;84;21064;-88
2022/09/27 05:35:34;;;;;;;38.48;15.43;;;;;;;10.52;81.11;99728.48;1709213;83;21104;-84
2022/09/27 05:38:01;;;;;;;25.10;14.63;;;;;;;10.62;80.90;99731.63;1715548;82;21830;-85
2022/09/27 05:40:28;;;;;;;29.52;14.98;;;;;;;10.67;80.73;99725.98;1740776;81;21079;-88
2022/09/27 05:42:55;;;;;;;23.40;13.95;;;;;;;10.70;80.55;99727.33;1739576;82;21076;-84
2022/09/27 05:45:24;;;;;;;23.70;14.90;;;;;;;10.75;80.45;99722.09;1697976;84;21073;-84
2022/09/27 05:47:56;;;;;;;24.50;14.80;;;;;;;10.79;80.31;99730.45;1712203;82;21062;-83
2022/09/27 05:54:29;;;;;;;24.52;14.55;;;;;;;10.97;80.51;99725.33;1710799;83;21065;-89
2022/09/27 05:56:59;;;;;;;20.30;16.25;;;;;;;11.14;80.25;99722.80;1717156;82;25360;-86
2022/09/27 05:59:26;;;;;;;34.08;16.07;;;;;;;11.30;80.41;99721.16;1718991;82;21048;-85
2022/09/27 06:01:53;;;;;;;31.33;17.10;;;;;;;11.43;80.03;99722.07;1708689;82;21608;-85
2022/09/27 06:04:20;;;;;;;28.38;18.30;;;;;;;11.52;80.02;99715.98;1730957;82;22441;-85
2022/09/27 06:07:34;;;;;;;25.40;18.12;;;;;;;11.63;79.95;99715.14;1730902;82;21056;-90
2022/09/27 06:10:24;;;;;;;23.45;18.62;;;;;;;11.75;79.71;99712.10;1731362;82;21505;-89
2022/09/27 06:24:50;;;;;;;43.40;22.98;;;;;;;12.09;79.40;99710.91;1731126;82;21016;-89
2022/09/27 06:27:17;;;;;;;42.38;25.92;;;;;;;12.28;79.29;99707.90;1730609;82;21127;-85
2022/09/27 06:33:30;;;;;;;48.15;25.80;;;;;;;12.55;79.31;99709.66;1716799;82;21059;-84
2022/09/27 06:35:59;;;;;;;42.88;27.82;;;;;;;12.63;78.84;99718.45;1729283;82;21835;-85
2022/09/27 06:38:26;;;;;;;40.50;27.42;;;;;;;12.64;78.73;99713.63;1695874;82;21035;-84
2022/09/27 06:44:48;;;;;;;51.23;29.00;;;;;;;12.71;78.77;99722.44;1736595;82;21111;-84
2022/09/27 06:47:18;;;;;;;48.05;29.65;;;;;;;12.69;78.19;99721.53;1711144;83;21092;-88
2022/09/27 06:49:45;;;;;;;47.95;31.85;;;;;;;12.64;78.41;99719.77;1711800;82;21776;-84
2022/09/27 06:52:14;;;;;;;52.62;32.13;;;;;;;12.68;78.44;99719.78;1739328;82;21067;-88
2022/09/27 06:54:56;;;;;;;43.80;30.05;;;;;;;12.70;78.46;99729.45;1720885;82;21031;-90
2022/09/27 07:00:28;;;;;;;44.60;31.27;;;;;;;12.80;78.43;99727.69;1719419;82;21548;-89
2022/09/27 07:02:59;;;;;;;66.15;43.85;;;;;;;12.85;78.34;99720.65;1725672;82;21948;-89
2022/09/27 07:05:25;;;;;;;47.83;34.95;;;;;;;12.96;78.47;99722.84;1700223;84;21128;-89
2022/09/27 07:08:49;;;;;;;44.05;35.83;;;;;;;13.09;78.41;99723.70;1700457;84;22251;-89
2022/09/27 07:11:17;;;;;;;47.40;35.88;;;;;;;13.25;78.56;99726.31;1700585;83;21075;-89
2022/09/27 07:14:44;;;;;;;49.63;36.98;;;;;;;13.54;78.53;99728.92;1700655;84;21080;-89
2022/09/27 07:17:12;;;;;;;45.17;37.20;;;;;;;13.65;78.07;99731.08;1699957;84;22569;-84
2022/09/27 07:19:50;;;;;;;44.90;37.15;;;;;;;13.73;77.96;99727.95;1700605;84;21064;-88
2022/09/27 07:22:17;;;;;;;47.23;36.85;;;;;;;13.84;77.93;99727.91;1699972;84;21067;-84
2022/09/27 07:24:44;;;;;;;48.13;38.30;;;;;;;14.03;77.72;99729.14;1696579;84;21048;-84
2022/09/27 07:27:11;;;;;;;45.95;37.50;;;;;;;14.15;77.34;99730.38;1739545;82;21079;-84
2022/09/27 07:29:38;;;;;;;49.00;37.70;;;;;;;14.24;77.20;99730.32;1710329;82;21966;-84
2022/09/27 07:35:44;;;;;;;42.27;34.03;;;;;;;14.35;76.64;99734.23;1729525;82;21114;-89
2022/09/27 07:38:15;;;;;;;40.05;32.63;;;;;;;14.42;76.44;99731.11;1720199;82;21069;-84
2022/09/27 07:40:42;;;;;;;42.88;33.80;;;;;;;14.46;76.27;99730.19;1703219;83;21102;-83
2022/09/27 07:43:58;;;;;;;38.10;32.10;;;;;;;14.53;76.12;99726.16;1728670;83;22584;-89
2022/09/27 07:50:34;;;;;;;40.20;32.80;;;;;;;14.76;76.06;99736.59;1728861;82;21017;-88
2022/09/27 07:53:03;;;;;;;39.27;34.43;;;;;;;14.89;75.75;99721.93;1728438;82;21016;-88
2022/09/27 07:59:29;;;;;;;38.38;32.33;;;;;;;15.19;75.44;99726.51;1729198;82;21119;-86
2022/09/27 08:01:56;;;;;;;39.03;31.80;;;;;;;15.41;75.15;99728.03;1728051;82;21139;-84
2022/09/27 08:04:23;;;;;;;35.73;31.37;;;;;;;15.53;74.91;99732.31;1674850;82;21111;-84
2022/09/27 08:07:32;;;;;;;37.33;31.82;;;;;;;15.70;74.84;99737.41;1706619;84;21103;-88
2022/09/27 08:10:46;;;;;;;37.38;32.23;;;;;;;15.83;74.41;99735.52;1655889;85;21106;-88
2022/09/27 08:13:22;;;;;;;35.48;30.77;;;;;;;15.80;73.85;99731.11;1663647;85;22588;-91
2022/09/27 08:20:05;;;;;;;34.95;31.20;;;;;;;15.69;73.23;99732.56;1664317;85;21077;-88
2022/09/27 08:22:32;;;;;;;36.70;32.13;;;;;;;15.68;73.16;99729.92;1723953;82;21060;-84
2022/09/27 08:24:59;;;;;;;36.33;31.15;;;;;;;15.74;73.14;99735.19;1729789;82;21063;-86
2022/09/27 08:28:22;;;;;;;37.45;31.42;;;;;;;15.80;73.21;99720.50;1730550;82;21787;-87
2022/09/27 08:30:54;;;;;;;34.53;30.72;;;;;;;15.93;73.25;99719.47;1730011;82;21115;-84
2022/09/27 08:37:08;;;;;;;33.23;29.42;;;;;;;16.39;73.04;99721.03;1720912;82;21107;-88
2022/09/27 08:40:07;;;;;;;32.08;28.23;;;;;;;16.57;72.59;99720.72;1735160;82;21123;-89
2022/09/27 08:42:47;;;;;;;32.13;26.82;;;;;;;16.66;72.29;99725.89;1720031;82;21805;-84
2022/09/27 08:45:38;;;;;;;30.62;27.32;;;;;;;16.75;71.80;99729.31;1732951;82;21639;-89
2022/09/27 08:48:05;;;;;;;27.75;24.75;;;;;;;16.81;71.31;99722.56;1714492;82;21655;-88
2022/09/27 08:50:41;;;;;;;29.57;23.77;;;;;;;16.65;70.66;99721.50;1709351;83;21059;-88
2022/09/27 09:01:35;;;;;;;25.32;22.55;;;;;;;16.76;71.12;99710.70;1707510;83;21037;-88
2022/09/27 09:04:03;;;;;;;;;;;;;;;16.76;70.30;99706.71;1712793;82;21071;-85
2022/09/27 09:07:37;;;;;;;26.40;20.88;;;;;;;16.77;70.35;99707.12;1705576;82;20245;-88
2022/09/27 09:12:45;;;;;;;27.02;21.95;;;;;;;16.68;70.11;99712.59;1704585;82;21063;-84
2022/09/27 09:12:54;;;;;;;29.85;23.67;;;;;;;16.40;69.70;99710.83;1711274;82;21886;-85
2022/09/27 09:15:53;;;;;;;28.02;24.75;;;;;;;16.35;70.00;99704.70;1710511;83;21041;-88
2022/09/27 09:18:34;;;;;;;28.85;24.23;;;;;;;16.32;70.11;99704.30;1709466;82;21557;-84
2022/09/27 09:21:58;;;;;;;27.80;24.67;;;;;;;16.40;70.27;99706.84;1718717;82;21080;-89
2022/09/27 09:24:47;;;;;;;27.07;23.22;;;;;;;16.57;70.46;99706.57;1705221;83;21140;-84
2022/09/27 09:31:58;;;;;;;28.62;23.38;;;;;;;17.14;70.38;99697.66;1712566;82;21676;-89
2022/09/27 09:34:33;;;;;;;26.65;21.93;;;;;;;17.49;70.24;99693.86;1709703;82;21275;-84
2022/09/27 09:37:18;;;;;;;25.08;21.80;;;;;;;17.75;69.75;99693.74;1710122;82;21119;-85
2022/09/27 09:40:27;;;;;;;24.72;20.77;;;;;;;17.91;69.15;99693.47;1703103;82;21049;-89
2022/09/27 09:43:12;;;;;;;21.10;18.82;;;;;;;17.94;68.70;99695.58;1709097;82;21820;-89
2022/09/27 09:45:45;;;;;;;20.95;18.85;;;;;;;17.78;68.14;99684.84;1723110;82;21295;-85
2022/09/27 09:48:44;;;;;;;20.02;17.92;;;;;;;17.54;68.01;99668.47;1705379;82;21082;-85
2022/09/27 09:51:18;;;;;;;21.65;19.20;;;;;;;17.40;67.97;99680.73;1713485;82;21036;-85
2022/09/27 09:54:05;;;;;;;20.02;18.07;;;;;;;17.13;67.77;99679.47;1707092;82;21028;-85
2022/09/27 09:56:44;;;;;;;21.27;19.05;;;;;;;16.82;67.53;99674.73;1705272;82;22740;-89
2022/09/27 09:59:39;;;;;;;20.08;17.85;;;;;;;16.54;67.72;99677.42;1696979;83;21063;-85
2022/09/27 10:02:35;;;;;;;19.35;17.35;;;;;;;16.21;68.03;99668.61;1710500;82;21116;-85
2022/09/27 10:05:01;;;;;;;20.48;18.37;;;;;;;16.31;68.70;99675.98;1700114;83;21075;-84
2022/09/27 10:07:36;;;;;;;21.30;18.45;;;;;;;16.43;69.03;99682.44;1709241;83;21103;-84
2022/09/27 10:10:04;;;;;;;20.10;18.00;;;;;;;16.59;69.23;99672.88;1709470;82;22611;-89
2022/09/27 10:12:31;;;;;;;19.80;17.55;;;;;;;16.74;69.29;99677.92;1698293;81;21576;-84
2022/09/27 10:14:58;;;;;;;20.30;18.27;;;;;;;16.78;68.93;99678.33;1716550;82;21543;-88
2022/09/27 10:17:29;;;;;;;22.07;17.98;;;;;;;16.70;68.72;99669.16;1717254;83;21013;-88
2022/09/27 10:24:07;;;;;;;20.50;17.07;;;;;;;16.48;68.44;99667.31;1719867;83;21063;-89
2022/09/27 10:26:35;;;;;;;20.75;18.55;;;;;;;16.42;68.66;99666.09;1717915;82;21075;-84
2022/09/27 10:29:22;;;;;;;20.62;18.02;;;;;;;16.47;68.58;99671.31;1721097;82;21079;-88
2022/09/27 10:31:49;;;;;;;20.75;18.55;;;;;;;16.45;68.62;99668.67;1717360;82;21102;-84
2022/09/27 10:34:37;;;;;;;20.02;18.00;;;;;;;16.49;68.77;99665.06;1717011;82;21060;-89
2022/09/27 10:37:18;;;;;;;19.48;17.35;;;;;;;16.48;68.73;99667.31;1715330;82;21909;-88
2022/09/27 10:39:46;;;;;;;23.15;19.85;;;;;;;16.53;68.65;99667.22;1718558;81;21794;-84
2022/09/27 10:42:34;;;;;;;21.00;18.77;;;;;;;16.56;68.44;99662.33;1716546;83;21055;-84
2022/09/27 10:45:29;;;;;;;22.20;19.65;;;;;;;16.62;68.56;99655.57;1718477;82;21110;-84
2022/09/27 10:47:58;;;;;;;19.60;17.50;;;;;;;16.81;68.77;99656.98;1717268;82;22300;-85
2022/09/27 10:54:22;;;;;;;20.20;17.35;;;;;;;17.31;68.69;99645.47;1668076;85;21040;-89
2022/09/27 10:57:15;;;;;;;17.07;15.35;;;;;;;17.60;68.43;99644.84;1711972;81;21135;-85
2022/09/27 11:00:38;;;;;;;18.65;16.55;;;;;;;17.69;67.63;99642.86;1717827;83;21072;-90
2022/09/27 11:03:14;;;;;;;19.73;17.62;;;;;;;17.80;67.58;99639.97;1716938;82;21091;-84
2022/09/27 11:05:42;;;;;;;19.42;17.35;;;;;;;17.88;67.07;99642.02;1716557;82;21767;-84
2022/09/27 11:08:31;;;;;;;21.35;17.27;;;;;;;17.94;67.19;99640.13;1719575;82;21066;-89
2022/09/27 11:11:20;;;;;;;19.27;16.30;;;;;;;18.05;67.18;99638.97;1693375;82;21193;-85
2022/09/27 11:14:07;;;;;;;19.17;15.80;;;;;;;18.16;67.08;99642.72;1686248;83;21096;-89
2022/09/27 11:17:07;;;;;;;16.77;15.00;;;;;;;18.29;66.93;99641.10;1702418;82;21149;-89
2022/09/27 11:20:23;;;;;;;18.30;15.30;;;;;;;18.43;66.91;99638.95;1717677;82;21202;-89
2022/09/27 11:23:18;;;;;;;16.67;14.35;;;;;;;18.60;66.52;99638.09;1719718;81;21067;-84
2022/09/27 11:25:58;;;;;;;15.72;13.75;;;;;;;18.73;66.23;99639.98;1716412;82;21102;-85
2022/09/27 11:28:56;;;;;;;15.45;13.68;;;;;;;18.86;66.06;99633.01;1717534;82;21071;-84
2022/09/27 11:32:05;;;;;;;17.15;13.05;;;;;;;18.95;65.81;99632.77;1717438;82;21098;-85
2022/09/27 11:34:51;;;;;;;14.13;12.63;;;;;;;19.04;65.39;99624.52;1716674;82;21884;-91
2022/09/27 11:41:25;;;;;;;14.28;12.78;;;;;;;19.09;64.59;99617.27;1697866;83;21080;-85
2022/09/27 11:44:51;;;;;;;14.55;12.50;;;;;;;19.06;64.28;99614.67;1696988;83;21124;-89
2022/09/27 11:48:03;;;;;;;12.85;11.28;;;;;;;19.07;64.07;99615.54;1698471;83;21072;-89
2022/09/27 11:51:31;;;;;;;11.75;10.48;;;;;;;19.08;63.81;99622.17;1697423;83;21786;-89
2022/09/27 11:55:10;;;;;;;12.28;10.98;;;;;;;19.08;63.48;99613.30;1701933;84;21057;-88
2022/09/27 11:57:47;;;;;;;13.88;12.05;;;;;;;19.06;63.19;99607.14;1698269;83;21120;-84
2022/09/27 12:00:23;;;;;;;14.03;12.53;;;;;;;19.13;63.14;99611.39;1692673;84;21077;-84
2022/09/27 12:03:24;;;;;;;13.50;12.15;;;;;;;19.23;63.01;99611.53;1683834;82;21077;-84
2022/09/27 12:06:12;;;;;;;14.30;12.80;;;;;;;19.30;62.82;99608.23;1698850;83;21795;-84
2022/09/27 12:08:58;;;;;;;15.48;13.83;;;;;;;19.34;62.56;99604.55;1697093;83;21076;-84
2022/09/27 12:12:08;;;;;;;15.45;13.85;;;;;;;19.40;62.65;99600.36;1684834;83;21052;-89
2022/09/27 12:18:38;;;;;;;15.68;14.07;;;;;;;19.41;61.79;99598.13;1693744;83;21061;-84
2022/09/27 12:21:08;;;;;;;15.70;13.88;;;;;;;19.37;61.73;99596.44;1694731;84;21801;-89
2022/09/27 12:23:46;;;;;;;15.48;13.62;;;;;;;19.40;61.77;99592.36;1696514;83;21080;-89
2022/09/27 12:26:22;;;;;;;17.80;16.05;;;;;;;19.41;61.70;99592.31;1697781;83;21040;-84
2022/09/27 12:29:25;;;;;;;17.62;15.13;;;;;;;19.34;61.58;99593.88;1696020;83;21079;-84
2022/09/27 12:32:31;;;;;;;21.02;18.82;;;;;;;19.23;61.60;99588.38;1678700;83;21071;-84
2022/09/27 12:39:22;;;;;;;19.92;17.12;;;;;;;18.93;61.64;99578.60;1677406;83;21054;-90
2022/09/27 12:42:08;;;;;;;21.05;18.95;;;;;;;18.88;62.11;99577.38;1712338;82;21640;-88
2022/09/27 12:44:39;;;;;;;20.35;18.32;;;;;;;18.91;62.08;99578.64;1714369;82;21059;-84
2022/09/27 12:47:35;;;;;;;23.42;18.67;;;;;;;18.82;61.92;99566.89;1665721;83;21101;-84
2022/09/27 12:50:34;;;;;;;24.25;18.87;;;;;;;18.75;62.08;99551.95;1715074;82;22053;-90
2022/09/27 12:53:06;;;;;;;18.98;16.67;;;;;;;18.81;62.15;99565.16;1713535;82;21497;-86
2022/09/27 12:56:28;;;;;;;18.57;16.57;;;;;;;18.83;62.14;99560.19;1706288;83;21813;-92
2022/09/27 13:03:12;;;;;;;19.00;17.00;;;;;;;18.74;61.77;99565.74;1713839;83;21122;-90
2022/09/27 13:05:54;;;;;;;18.77;16.90;;;;;;;18.60;61.73;99571.46;1709184;82;21886;-85
2022/09/27 13:09:17;;;;;;;19.50;17.35;;;;;;;18.59;61.83;99561.70;1712276;82;21423;-89
2022/09/27 13:15:34;;;;;;;19.60;16.32;;;;;;;18.45;61.71;99563.88;1706229;83;21182;-84
2022/09/27 13:18:06;;;;;;;17.98;16.05;;;;;;;18.46;61.83;99558.95;1710230;82;21547;-84
2022/09/27 13:20:51;;;;;;;20.02;17.75;;;;;;;18.52;61.91;99556.11;1709895;82;22963;-89
2022/09/27 13:23:24;;;;;;;18.48;16.60;;;;;;;18.57;61.85;99554.21;1711258;82;21063;-90
2022/09/27 13:26:02;;;;;;;20.47;18.20;;;;;;;18.61;61.96;99551.87;1708280;82;21060;-86
2022/09/27 13:28:37;;;;;;;19.77;17.67;;;;;;;18.61;61.88;99549.20;1710804;82;21424;-86
2022/09/27 13:31:08;;;;;;;19.87;17.85;;;;;;;18.59;61.86;99540.38;1708890;82;21127;-86
2022/09/27 13:34:31;;;;;;;21.20;18.60;;;;;;;18.48;61.81;99543.80;1690696;83;21808;-92
2022/09/27 13:36:58;;;;;;;25.00;18.15;;;;;;;18.45;61.97;99544.77;1691830;83;21071;-86
2022/09/27 13:39:25;;;;;;;21.12;18.92;;;;;;;18.44;62.27;99535.47;1666560;82;21095;-86
2022/09/27 13:41:57;;;;;;;20.23;16.90;;;;;;;18.54;62.38;99537.42;1711115;82;21166;-86
2022/09/27 13:44:48;;;;;;;19.60;17.50;;;;;;;18.62;62.49;99524.78;1708983;82;21055;-86
2022/09/27 13:47:32;;;;;;;20.70;17.73;;;;;;;18.73;62.48;99521.80;1711587;82;21545;-86